createdAt,value
2022-10-09T00:00:29.146Z,4.00
2022-10-09T00:01:29.157Z,4.30
2022-10-09T00:02:29.177Z,4.30
2022-10-09T00:03:29.120Z,4.40
2022-10-09T00:04:29.111Z,4.50
2022-10-09T00:05:29.200Z,5.30
2022-10-09T00:06:29.100Z,5.40
2022-10-09T00:07:29.080Z,6.10
2022-10-09T00:08:29.071Z,5.30
2022-10-09T00:09:29.066Z,4.90
2022-10-09T00:10:29.050Z,5.50
2022-10-09T00:11:29.045Z,5.10
2022-10-09T00:12:29.029Z,4.90
2022-10-09T00:13:29.014Z,5.50
2022-10-09T00:14:29.011Z,5.70
2022-10-09T00:15:29.004Z,6.10
2022-10-09T00:16:29.103Z,6.30
2022-10-09T00:17:29.072Z,7.30
2022-10-09T00:18:28.977Z,8.20
2022-10-09T00:19:28.997Z,7.70
2022-10-09T00:20:28.960Z,7.80
2022-10-09T00:21:28.962Z,8.80
2022-10-09T00:22:28.928Z,9.60
2022-10-09T00:23:28.924Z,8.80
2022-10-09T00:24:28.911Z,9.70
2022-10-09T00:25:28.899Z,10.30
2022-10-09T00:26:28.957Z,8.90
2022-10-09T00:27:28.885Z,9.00
2022-10-09T00:28:28.928Z,9.80
2022-10-09T00:29:28.864Z,9.50
2022-10-09T00:30:28.890Z,9.80
2022-10-09T00:31:28.857Z,9.80
2022-10-09T00:32:28.839Z,10.00
2022-10-09T00:33:28.820Z,10.60
2022-10-09T00:34:28.821Z,10.80
2022-10-09T00:35:28.803Z,11.00
2022-10-09T00:36:28.808Z,11.80
2022-10-09T00:37:28.783Z,11.20
2022-10-09T00:38:28.771Z,12.60
2022-10-09T00:39:28.762Z,12.20
2022-10-09T00:40:28.754Z,12.70
2022-10-09T00:41:28.758Z,12.90
2022-10-09T00:42:28.727Z,12.90
2022-10-09T00:43:28.717Z,12.10
2022-10-09T00:44:28.721Z,12.90
2022-10-09T00:45:28.700Z,13.10
2022-10-09T00:46:28.765Z,13.00
2022-10-09T00:47:28.683Z,13.90
2022-10-09T00:48:28.667Z,14.10
2022-10-09T00:49:28.657Z,14.20
2022-10-09T00:50:28.646Z,15.20
2022-10-09T00:51:28.645Z,14.20
2022-10-09T00:52:28.623Z,13.60
2022-10-09T00:53:28.616Z,13.80
2022-10-09T00:54:28.603Z,13.60
2022-10-09T00:55:28.592Z,13.50
2022-10-09T00:56:28.600Z,13.10
2022-10-09T00:57:28.575Z,13.20
2022-10-09T00:58:28.565Z,13.30
2022-10-09T00:59:28.557Z,14.20
2022-10-09T01:00:28.565Z,13.90
2022-10-09T01:01:28.587Z,14.10
2022-10-09T01:02:28.583Z,13.90
2022-10-09T01:03:28.517Z,13.60
2022-10-09T01:04:28.502Z,14.30
2022-10-09T01:05:28.495Z,12.80
2022-10-09T01:06:28.497Z,13.30
2022-10-09T01:07:28.477Z,13.60
2022-10-09T01:08:28.463Z,13.00
2022-10-09T01:09:28.454Z,13.00
2022-10-09T01:10:28.444Z,12.70
2022-10-09T01:11:28.444Z,11.70
2022-10-09T01:12:28.420Z,11.90
2022-10-09T01:13:28.435Z,12.20
2022-10-09T01:14:28.398Z,12.10
2022-10-09T01:15:28.431Z,11.50
2022-10-09T01:16:28.395Z,11.40
2022-10-09T01:17:28.369Z,12.70
2022-10-09T01:18:28.359Z,11.90
2022-10-09T01:19:28.346Z,11.80
2022-10-09T01:20:28.343Z,12.30
2022-10-09T01:21:28.337Z,11.60
2022-10-09T01:22:28.316Z,12.70
2022-10-09T01:23:28.301Z,11.70
2022-10-09T01:24:28.299Z,11.40
2022-10-09T01:25:28.285Z,11.10
2022-10-09T01:26:28.291Z,11.10
2022-10-09T01:27:28.267Z,11.00
2022-10-09T01:28:28.323Z,11.30
2022-10-09T01:29:28.246Z,10.50
2022-10-09T01:30:28.237Z,11.00
2022-10-09T01:31:28.305Z,10.60
2022-10-09T01:32:28.216Z,10.00
2022-10-09T01:33:28.213Z,10.00
2022-10-09T01:34:28.197Z,9.60
2022-10-09T01:35:28.190Z,9.60
2022-10-09T01:36:28.192Z,9.40
2022-10-09T01:37:28.170Z,9.70
2022-10-09T01:38:28.156Z,9.40
2022-10-09T01:39:28.152Z,9.60
2022-10-09T01:40:28.137Z,9.50
2022-10-09T01:41:28.138Z,10.20
2022-10-09T01:42:28.120Z,9.70
2022-10-09T01:43:28.108Z,9.30
2022-10-09T01:44:28.097Z,9.30
2022-10-09T01:45:28.089Z,8.20
2022-10-09T01:46:28.164Z,8.60
2022-10-09T01:47:28.067Z,8.70
2022-10-09T01:48:28.063Z,8.40
2022-10-09T01:49:28.044Z,8.40
2022-10-09T01:50:28.045Z,9.00
2022-10-09T01:51:28.034Z,10.00
2022-10-09T01:52:28.012Z,9.40
2022-10-09T01:53:28.003Z,9.10
2022-10-09T01:54:27.994Z,9.40
2022-10-09T01:55:27.982Z,8.30
2022-10-09T01:56:27.991Z,9.00
2022-10-09T01:57:27.964Z,9.20
2022-10-09T01:58:27.952Z,8.20
2022-10-09T01:59:27.944Z,8.60
2022-10-09T02:00:27.933Z,8.40
2022-10-09T02:01:27.979Z,7.70
2022-10-09T02:02:27.972Z,8.00
2022-10-09T02:03:27.904Z,7.70
2022-10-09T02:04:27.895Z,7.40
2022-10-09T02:05:27.895Z,7.10
2022-10-09T02:06:27.874Z,7.40
2022-10-09T02:07:27.876Z,7.60
2022-10-09T02:08:27.854Z,6.90
2022-10-09T02:09:27.852Z,7.30
2022-10-09T02:10:27.844Z,6.90
2022-10-09T02:11:59.744Z,7.50
2022-10-09T02:12:27.818Z,7.40
2022-10-09T02:13:27.803Z,7.60
2022-10-09T02:14:27.798Z,7.10
2022-10-09T02:15:27.790Z,6.90
2022-10-09T02:16:27.781Z,6.90
2022-10-09T02:17:27.777Z,6.60
2022-10-09T02:18:27.749Z,6.40
2022-10-09T02:19:27.749Z,5.70
2022-10-09T02:20:27.741Z,6.60
2022-10-09T02:21:27.729Z,6.00
2022-10-09T02:22:27.724Z,5.80
2022-10-09T02:23:27.706Z,5.60
2022-10-09T02:24:27.697Z,5.30
2022-10-09T02:25:27.686Z,6.80
2022-10-09T02:26:27.673Z,5.70
2022-10-09T02:27:27.672Z,5.30
2022-10-09T02:28:27.694Z,5.30
2022-10-09T02:29:27.642Z,5.10
2022-10-09T02:30:27.635Z,5.10
2022-10-09T02:31:27.715Z,4.80
2022-10-09T02:32:27.628Z,5.40
2022-10-09T02:33:27.608Z,5.80
2022-10-09T02:34:27.600Z,5.40
2022-10-09T02:35:27.586Z,5.50
2022-10-09T02:36:27.576Z,5.20
2022-10-09T02:37:27.572Z,5.20
2022-10-09T02:38:27.553Z,5.50
2022-10-09T02:39:27.546Z,5.30
2022-10-09T02:40:27.552Z,5.00
2022-10-09T02:41:27.536Z,5.80
2022-10-09T02:42:27.521Z,5.80
2022-10-09T02:43:27.510Z,6.10
2022-10-09T02:44:27.503Z,4.80
2022-10-09T02:45:27.488Z,4.90
2022-10-09T02:46:27.522Z,6.30
2022-10-09T02:47:27.465Z,5.90
2022-10-09T02:48:27.458Z,5.90
2022-10-09T02:49:27.446Z,6.50
2022-10-09T02:50:27.437Z,6.60
2022-10-09T02:51:27.434Z,7.70
2022-10-09T02:52:27.426Z,6.70
2022-10-09T02:53:27.412Z,7.10
2022-10-09T02:54:27.397Z,6.90
2022-10-09T02:55:27.388Z,6.50
2022-10-09T02:56:27.392Z,7.20
2022-10-09T02:57:27.370Z,7.80
2022-10-09T02:58:27.360Z,7.20
2022-10-09T02:59:27.350Z,6.90
2022-10-09T03:00:27.357Z,7.40
2022-10-09T03:01:27.384Z,7.20
2022-10-09T03:02:27.454Z,7.00
2022-10-09T03:03:27.312Z,7.10
2022-10-09T03:04:27.294Z,7.00
2022-10-09T03:05:27.292Z,7.30
2022-10-09T03:06:27.291Z,6.50
2022-10-09T03:07:27.270Z,6.70
2022-10-09T03:08:27.427Z,6.20
2022-10-09T03:09:32.778Z,5.60
2022-10-09T03:10:29.234Z,5.50
2022-10-09T03:11:27.246Z,5.20
2022-10-09T03:12:27.213Z,5.90
2022-10-09T03:13:27.210Z,5.80
2022-10-09T03:14:27.201Z,8.00
2022-10-09T03:15:27.190Z,6.40
2022-10-09T03:16:27.258Z,6.70
2022-10-09T03:17:27.175Z,6.40
2022-10-09T03:18:27.154Z,7.70
2022-10-09T03:19:27.149Z,9.90
2022-10-09T03:20:27.137Z,9.30
2022-10-09T03:21:27.136Z,8.00
2022-10-09T03:22:27.115Z,7.60
2022-10-09T03:23:27.105Z,7.70
2022-10-09T03:24:27.094Z,7.60
2022-10-09T03:25:27.087Z,8.10
2022-10-09T03:26:27.096Z,7.00
2022-10-09T03:27:27.071Z,7.70
2022-10-09T03:28:27.101Z,6.40
2022-10-09T03:29:27.045Z,6.40
2022-10-09T03:30:27.038Z,6.50
2022-10-09T03:31:50.558Z,6.50
2022-10-09T03:32:29.061Z,6.00
2022-10-09T03:33:27.008Z,6.50
2022-10-09T03:34:26.998Z,6.30
2022-10-09T03:35:26.985Z,6.20
2022-10-09T03:36:26.993Z,6.10
2022-10-09T03:37:26.973Z,6.40
2022-10-09T03:38:26.954Z,5.50
2022-10-09T03:39:26.957Z,5.50
2022-10-09T03:40:27.045Z,5.40
2022-10-09T03:41:27.059Z,5.50
2022-10-09T03:42:26.921Z,5.10
2022-10-09T03:43:26.908Z,5.30
2022-10-09T03:44:26.893Z,4.90
2022-10-09T03:45:26.896Z,5.80
2022-10-09T03:46:26.923Z,6.50
2022-10-09T03:47:26.852Z,7.00
2022-10-09T03:48:26.850Z,6.70
2022-10-09T03:49:26.835Z,7.50
2022-10-09T03:50:26.833Z,7.80
2022-10-09T03:51:26.819Z,8.70
2022-10-09T03:52:26.828Z,8.20
2022-10-09T03:53:26.794Z,8.60
2022-10-09T03:54:26.778Z,7.50
2022-10-09T03:55:26.775Z,7.20
2022-10-09T03:56:26.753Z,8.60
2022-10-09T03:57:27.816Z,9.00
2022-10-09T03:58:26.749Z,10.60
2022-10-09T03:59:26.734Z,11.30
2022-10-09T04:00:26.724Z,11.90
2022-10-09T04:01:26.771Z,10.90
2022-10-09T04:02:26.787Z,10.70
2022-10-09T04:03:26.695Z,9.30
2022-10-09T04:04:26.682Z,9.10
2022-10-09T04:05:26.673Z,9.00
2022-10-09T04:06:26.662Z,8.60
2022-10-09T04:07:26.679Z,8.40
2022-10-09T04:08:26.639Z,9.60
2022-10-09T04:09:26.631Z,11.00
2022-10-09T04:10:26.619Z,11.90
2022-10-09T04:11:26.613Z,11.30
2022-10-09T04:12:26.619Z,9.20
2022-10-09T04:13:26.595Z,8.30
2022-10-09T04:14:26.583Z,7.20
2022-10-09T04:15:26.564Z,8.70
2022-10-09T04:16:26.643Z,8.10
2022-10-09T04:17:26.556Z,9.00
2022-10-09T04:18:26.532Z,9.30
2022-10-09T04:19:26.525Z,8.80
2022-10-09T04:20:26.511Z,8.10
2022-10-09T04:21:27.524Z,7.90
2022-10-09T04:22:26.493Z,8.30
2022-10-09T04:23:26.493Z,9.00
2022-10-09T04:24:26.475Z,10.50
2022-10-09T04:25:26.474Z,10.80
2022-10-09T04:26:26.457Z,9.70
2022-10-09T04:27:26.456Z,9.60
2022-10-09T04:28:26.500Z,9.10
2022-10-09T04:29:26.426Z,9.30
2022-10-09T04:30:26.416Z,9.20
2022-10-09T04:31:26.466Z,9.10
2022-10-09T04:32:26.408Z,10.40
2022-10-09T04:33:26.390Z,10.60
2022-10-09T04:34:26.380Z,9.40
2022-10-09T04:35:26.368Z,10.00
2022-10-09T04:36:26.354Z,9.80
2022-10-09T04:37:26.357Z,9.50
2022-10-09T04:38:26.328Z,8.90
2022-10-09T04:39:27.327Z,9.90
2022-10-09T04:40:26.314Z,9.20
2022-10-09T04:41:26.304Z,10.50
2022-10-09T04:42:26.313Z,9.80
2022-10-09T04:43:26.284Z,9.60
2022-10-09T04:44:26.274Z,10.10
2022-10-09T04:45:26.343Z,10.00
2022-10-09T04:46:26.263Z,9.80
2022-10-09T04:47:26.244Z,8.90
2022-10-09T04:48:26.233Z,9.80
2022-10-09T04:49:26.226Z,8.30
2022-10-09T04:50:26.213Z,8.10
2022-10-09T04:51:26.211Z,8.50
2022-10-09T04:52:26.193Z,9.70
2022-10-09T04:53:26.178Z,9.10
2022-10-09T04:54:26.170Z,9.10
2022-10-09T04:55:26.162Z,9.30
2022-10-09T04:56:26.159Z,8.40
2022-10-09T04:57:26.144Z,8.70
2022-10-09T04:58:26.127Z,9.50
2022-10-09T04:59:26.122Z,8.70
2022-10-09T05:00:26.107Z,9.00
2022-10-09T05:01:26.194Z,9.10
2022-10-09T05:02:26.188Z,8.60
2022-10-09T05:03:26.083Z,8.50
2022-10-09T05:04:26.069Z,8.60
2022-10-09T05:05:26.059Z,9.60
2022-10-09T05:06:26.057Z,10.80
2022-10-09T05:07:26.038Z,9.80
2022-10-09T05:08:26.026Z,9.50
2022-10-09T05:09:26.015Z,10.10
2022-10-09T05:10:26.003Z,9.50
2022-10-09T05:11:26.004Z,9.80
2022-10-09T05:12:25.987Z,9.90
2022-10-09T05:13:25.973Z,9.00
2022-10-09T05:14:25.963Z,8.40
2022-10-09T05:15:25.951Z,7.40
2022-10-09T05:16:25.982Z,8.00
2022-10-09T05:17:26.018Z,7.70
2022-10-09T05:18:25.924Z,7.80
2022-10-09T05:19:25.914Z,8.90
2022-10-09T05:20:25.907Z,9.80
2022-10-09T05:21:25.905Z,9.70
2022-10-09T05:22:25.883Z,9.70
2022-10-09T05:23:25.871Z,10.70
2022-10-09T05:24:25.872Z,9.70
2022-10-09T05:25:25.854Z,9.70
2022-10-09T05:26:25.855Z,9.80
2022-10-09T05:27:25.841Z,10.90
2022-10-09T05:28:25.926Z,10.90
2022-10-09T05:29:25.816Z,11.10
2022-10-09T05:30:25.808Z,11.10
2022-10-09T05:31:25.902Z,10.80
2022-10-09T05:32:25.792Z,10.90
2022-10-09T05:33:25.784Z,11.90
2022-10-09T05:34:25.774Z,13.70
2022-10-09T05:35:25.767Z,15.30
2022-10-09T05:36:25.763Z,16.90
2022-10-09T05:37:25.748Z,18.30
2022-10-09T05:38:25.739Z,17.40
2022-10-09T05:39:25.726Z,16.80
2022-10-09T05:40:29.050Z,18.50
2022-10-09T05:41:26.718Z,19.10
2022-10-09T05:42:25.699Z,19.30
2022-10-09T05:43:25.690Z,18.60
2022-10-09T05:44:25.682Z,19.30
2022-10-09T05:45:25.668Z,20.10
2022-10-09T05:46:25.669Z,20.10
2022-10-09T05:47:25.653Z,18.90
2022-10-09T05:48:25.640Z,18.80
2022-10-09T05:49:25.633Z,18.00
2022-10-09T05:50:25.624Z,18.50
2022-10-09T05:51:25.619Z,18.00
2022-10-09T05:52:25.629Z,18.40
2022-10-09T05:53:25.588Z,18.50
2022-10-09T05:54:25.585Z,18.50
2022-10-09T05:55:25.579Z,17.90
2022-10-09T05:56:25.567Z,17.80
2022-10-09T05:57:25.547Z,17.20
2022-10-09T05:58:25.541Z,17.10
2022-10-09T05:59:25.532Z,16.70
2022-10-09T06:00:25.529Z,16.30
2022-10-09T06:01:25.593Z,16.90
2022-10-09T06:02:25.600Z,15.90
2022-10-09T06:03:25.492Z,17.00
2022-10-09T06:04:25.482Z,16.80
2022-10-09T06:05:25.478Z,15.70
2022-10-09T06:06:25.472Z,15.10
2022-10-09T06:07:25.453Z,15.00
2022-10-09T06:08:25.440Z,14.20
2022-10-09T06:09:25.449Z,14.80
2022-10-09T06:10:28.020Z,13.90
2022-10-09T06:11:26.456Z,12.40
2022-10-09T06:12:25.407Z,12.80
2022-10-09T06:13:25.403Z,12.90
2022-10-09T06:14:25.386Z,13.10
2022-10-09T06:15:25.376Z,14.70
2022-10-09T06:16:25.462Z,15.90
2022-10-09T06:17:25.360Z,15.30
2022-10-09T06:18:25.347Z,15.40
2022-10-09T06:19:25.345Z,14.70
2022-10-09T06:20:25.328Z,14.50
2022-10-09T06:21:25.331Z,14.30
2022-10-09T06:22:25.307Z,15.40
2022-10-09T06:23:25.296Z,15.20
2022-10-09T06:24:28.704Z,16.00
2022-10-09T06:25:26.272Z,14.80
2022-10-09T06:26:25.272Z,14.70
2022-10-09T06:27:25.257Z,15.00
2022-10-09T06:28:25.295Z,14.80
2022-10-09T06:29:25.245Z,14.30
2022-10-09T06:30:25.224Z,14.20
2022-10-09T06:31:25.273Z,14.10
2022-10-09T06:32:25.203Z,14.80
2022-10-09T06:33:25.226Z,14.80
2022-10-09T06:34:25.186Z,14.20
2022-10-09T06:35:25.174Z,14.80
2022-10-09T06:36:25.175Z,14.00
2022-10-09T06:37:25.155Z,13.60
2022-10-09T06:38:25.144Z,12.90
2022-10-09T06:39:25.136Z,12.90
2022-10-09T06:40:25.125Z,13.10
2022-10-09T06:41:25.150Z,12.30
2022-10-09T06:42:25.102Z,12.60
2022-10-09T06:43:25.092Z,11.70
2022-10-09T06:44:25.084Z,10.70
2022-10-09T06:45:25.086Z,11.10
2022-10-09T06:46:25.138Z,10.30
2022-10-09T06:47:25.055Z,10.60
2022-10-09T06:48:25.042Z,11.00
2022-10-09T06:49:25.039Z,10.00
2022-10-09T06:50:25.020Z,10.30
2022-10-09T06:51:25.023Z,10.30
2022-10-09T06:52:25.003Z,11.40
2022-10-09T06:53:24.990Z,10.90
2022-10-09T06:54:24.982Z,10.60
2022-10-09T06:55:28.601Z,10.70
2022-10-09T06:56:25.971Z,9.90
2022-10-09T06:57:24.951Z,10.30
2022-10-09T06:58:24.943Z,10.40
2022-10-09T06:59:24.926Z,11.60
2022-10-09T07:00:24.921Z,11.20
2022-10-09T07:01:24.982Z,10.60
2022-10-09T07:02:24.937Z,11.50
2022-10-09T07:03:24.894Z,10.50
2022-10-09T07:04:24.882Z,10.80
2022-10-09T07:05:24.878Z,11.10
2022-10-09T07:06:24.870Z,10.70
2022-10-09T07:07:24.879Z,11.30
2022-10-09T07:08:24.842Z,10.80
2022-10-09T07:09:24.828Z,11.60
2022-10-09T07:10:25.411Z,12.00
2022-10-09T07:11:25.818Z,11.80
2022-10-09T07:12:24.804Z,11.70
2022-10-09T07:13:24.791Z,11.80
2022-10-09T07:14:24.778Z,11.10
2022-10-09T07:15:24.781Z,11.20
2022-10-09T07:16:24.833Z,10.50
2022-10-09T07:17:25.747Z,9.50
2022-10-09T07:18:24.733Z,8.80
2022-10-09T07:19:24.727Z,8.20
2022-10-09T07:20:24.716Z,9.30
2022-10-09T07:21:24.712Z,7.90
2022-10-09T07:22:26.965Z,8.10
2022-10-09T07:23:25.690Z,8.70
2022-10-09T07:24:24.678Z,9.10
2022-10-09T07:25:24.671Z,9.70
2022-10-09T07:26:24.669Z,9.60
2022-10-09T07:27:24.652Z,9.50
2022-10-09T07:28:24.722Z,9.80
2022-10-09T07:29:24.622Z,7.40
2022-10-09T07:30:24.620Z,7.50
2022-10-09T07:31:24.688Z,5.40
2022-10-09T07:32:24.599Z,4.30
2022-10-09T07:33:24.584Z,5.80
2022-10-09T07:34:24.574Z,7.80
2022-10-09T07:35:24.563Z,6.30
2022-10-09T07:36:24.566Z,4.90
2022-10-09T07:37:24.548Z,5.00
2022-10-09T07:38:24.535Z,4.50
2022-10-09T07:39:24.523Z,4.70
2022-10-09T07:40:24.514Z,4.90
2022-10-09T07:41:24.514Z,5.10
2022-10-09T07:42:24.495Z,5.90
2022-10-09T07:43:24.478Z,5.70
2022-10-09T07:44:24.476Z,5.40
2022-10-09T07:45:24.467Z,5.60
2022-10-09T07:46:24.515Z,8.90
2022-10-09T07:47:24.455Z,8.80
2022-10-09T07:48:24.430Z,8.60
2022-10-09T07:49:24.418Z,6.90
2022-10-09T07:50:24.405Z,6.60
2022-10-09T07:51:24.396Z,6.80
2022-10-09T07:52:24.398Z,5.90
2022-10-09T07:53:24.377Z,5.90
2022-10-09T07:54:24.361Z,6.10
2022-10-09T07:55:24.350Z,4.60
2022-10-09T07:56:24.340Z,4.70
2022-10-09T07:57:24.338Z,4.30
2022-10-09T07:58:24.321Z,4.00
2022-10-09T07:59:24.307Z,4.10
2022-10-09T08:00:24.343Z,4.50
2022-10-09T08:01:24.315Z,4.70
2022-10-09T08:02:24.339Z,4.10
2022-10-09T08:03:24.267Z,4.10
2022-10-09T08:04:24.258Z,4.00
2022-10-09T08:05:24.244Z,4.60
2022-10-09T08:06:24.236Z,4.70
2022-10-09T08:07:24.238Z,4.60
2022-10-09T08:08:24.214Z,4.20
2022-10-09T08:09:24.211Z,4.90
2022-10-09T08:10:24.225Z,4.70
2022-10-09T08:11:24.189Z,4.30
2022-10-09T08:12:24.189Z,4.50
2022-10-09T08:13:24.161Z,4.60
2022-10-09T08:14:24.152Z,4.90
2022-10-09T08:15:24.145Z,6.10
2022-10-09T08:16:24.133Z,5.90
2022-10-09T08:17:24.135Z,5.60
2022-10-09T08:18:24.109Z,5.00
2022-10-09T08:19:24.101Z,5.00
2022-10-09T08:20:24.168Z,4.30
2022-10-09T08:21:24.077Z,4.40
2022-10-09T08:22:24.084Z,5.20
2022-10-09T08:23:24.074Z,4.80
2022-10-09T08:24:24.047Z,6.00
2022-10-09T08:25:24.037Z,5.50
2022-10-09T08:26:24.029Z,5.30
2022-10-09T08:27:24.019Z,5.40
2022-10-09T08:28:25.068Z,4.70
2022-10-09T08:29:24.004Z,4.70
2022-10-09T08:30:24.024Z,4.60
2022-10-09T08:31:24.048Z,4.30
2022-10-09T08:32:23.978Z,4.20
2022-10-09T08:33:23.960Z,4.40
2022-10-09T08:34:23.948Z,4.20
2022-10-09T08:35:23.941Z,4.40
2022-10-09T08:36:23.939Z,4.20
2022-10-09T08:37:23.919Z,3.80
2022-10-09T08:38:46.236Z,4.30
2022-10-09T08:39:25.899Z,4.40
2022-10-09T08:40:23.883Z,3.80
2022-10-09T08:41:23.895Z,4.40
2022-10-09T08:42:23.859Z,4.10
2022-10-09T08:43:23.854Z,4.00
2022-10-09T08:44:23.846Z,4.70
2022-10-09T08:45:23.832Z,4.10
2022-10-09T08:46:23.865Z,4.10
2022-10-09T08:47:23.824Z,4.00
2022-10-09T08:48:23.799Z,3.70
2022-10-09T08:49:23.803Z,4.30
2022-10-09T08:50:23.784Z,4.10
2022-10-09T08:51:23.783Z,3.60
2022-10-09T08:52:23.761Z,3.80
2022-10-09T08:53:23.756Z,4.10
2022-10-09T08:54:23.731Z,4.30
2022-10-09T08:55:24.724Z,4.30
2022-10-09T08:56:23.734Z,4.40
2022-10-09T08:57:23.704Z,3.90
2022-10-09T08:58:23.714Z,4.40
2022-10-09T08:59:23.684Z,4.70
2022-10-09T09:00:23.672Z,4.70
2022-10-09T09:01:23.740Z,4.90
2022-10-09T09:02:23.693Z,4.60
2022-10-09T09:03:23.644Z,4.00
2022-10-09T09:04:23.632Z,3.90
2022-10-09T09:05:23.622Z,4.00
2022-10-09T09:06:23.632Z,3.60
2022-10-09T09:07:23.601Z,4.10
2022-10-09T09:08:23.596Z,4.20
2022-10-09T09:09:23.578Z,4.10
2022-10-09T09:10:23.577Z,3.80
2022-10-09T09:11:23.567Z,4.00
2022-10-09T09:12:23.549Z,3.70
2022-10-09T09:13:23.543Z,3.30
2022-10-09T09:14:23.536Z,3.80
2022-10-09T09:15:23.517Z,3.50
2022-10-09T09:16:23.595Z,3.40
2022-10-09T09:17:23.498Z,3.30
2022-10-09T09:18:23.490Z,4.00
2022-10-09T09:19:23.483Z,3.30
2022-10-09T09:20:23.467Z,3.40
2022-10-09T09:21:23.457Z,3.70
2022-10-09T09:22:23.457Z,3.40
2022-10-09T09:23:23.433Z,3.30
2022-10-09T09:24:23.425Z,3.30
2022-10-09T09:25:23.414Z,3.70
2022-10-09T09:26:23.416Z,3.60
2022-10-09T09:27:23.404Z,3.20
2022-10-09T09:28:23.443Z,3.60
2022-10-09T09:29:23.391Z,2.90
2022-10-09T09:30:23.365Z,3.20
2022-10-09T09:31:23.396Z,3.10
2022-10-09T09:32:23.354Z,3.40
2022-10-09T09:33:23.329Z,3.10
2022-10-09T09:34:23.325Z,2.70
2022-10-09T09:35:23.314Z,3.30
2022-10-09T09:36:23.308Z,3.10
2022-10-09T09:37:23.302Z,3.20
2022-10-09T09:38:23.279Z,3.20
2022-10-09T09:40:44.348Z,3.10
2022-10-09T09:41:25.262Z,3.10
2022-10-09T09:42:23.240Z,2.80
2022-10-09T09:43:23.218Z,3.20
2022-10-09T09:44:24.214Z,3.10
2022-10-09T09:45:23.208Z,2.90
2022-10-09T09:46:23.267Z,3.00
2022-10-09T09:47:23.197Z,3.00
2022-10-09T09:48:23.218Z,3.20
2022-10-09T09:49:23.157Z,3.50
2022-10-09T09:50:45.987Z,2.80
2022-10-09T09:51:29.375Z,2.80
2022-10-09T09:52:24.144Z,3.00
2022-10-09T09:53:23.119Z,3.20
2022-10-09T09:54:23.110Z,3.40
2022-10-09T09:55:23.100Z,3.00
2022-10-09T09:56:23.094Z,3.10
2022-10-09T09:57:23.095Z,3.20
2022-10-09T09:58:23.072Z,3.10
2022-10-09T09:59:23.064Z,3.40
2022-10-09T10:00:23.053Z,3.00
2022-10-09T10:01:23.089Z,3.30
2022-10-09T10:02:24.176Z,3.40
2022-10-09T10:03:23.022Z,3.10
2022-10-09T10:04:23.020Z,3.10
2022-10-09T10:05:23.002Z,3.40
2022-10-09T10:06:22.995Z,3.30
2022-10-09T10:07:23.057Z,3.00
2022-10-09T10:08:22.975Z,3.10
2022-10-09T10:09:22.964Z,3.30
2022-10-09T10:10:25.593Z,3.30
2022-10-09T10:11:23.944Z,3.00
2022-10-09T10:12:23.061Z,3.80
2022-10-09T10:13:22.914Z,3.10
2022-10-09T10:14:23.908Z,3.10
2022-10-09T10:15:22.901Z,3.10
2022-10-09T10:16:22.964Z,3.00
2022-10-09T10:17:22.898Z,3.50
2022-10-09T10:18:22.874Z,2.90
2022-10-09T10:19:22.851Z,3.20
2022-10-09T10:20:23.849Z,3.10
2022-10-09T10:21:22.840Z,2.90
2022-10-09T10:22:22.844Z,2.80
2022-10-09T10:23:22.820Z,2.80
2022-10-09T10:24:22.825Z,3.20
2022-10-09T10:25:22.804Z,3.00
2022-10-09T10:26:22.791Z,3.00
2022-10-09T10:27:22.795Z,2.60
2022-10-09T10:28:22.801Z,3.00
2022-10-09T10:29:22.760Z,3.00
2022-10-09T10:30:22.751Z,3.00
2022-10-09T10:31:22.772Z,3.30
2022-10-09T10:32:22.741Z,2.90
2022-10-09T10:33:22.725Z,3.30
2022-10-09T10:34:22.711Z,2.90
2022-10-09T10:35:22.701Z,2.90
2022-10-09T10:36:22.689Z,2.90
2022-10-09T10:37:22.688Z,2.90
2022-10-09T10:38:22.671Z,3.00
2022-10-09T10:39:22.659Z,2.90
2022-10-09T10:40:22.642Z,3.10
2022-10-09T10:41:22.634Z,2.50
2022-10-09T10:42:22.632Z,2.60
2022-10-09T10:43:22.629Z,3.10
2022-10-09T10:44:22.602Z,2.70
2022-10-09T10:45:22.592Z,3.00
2022-10-09T10:46:22.602Z,2.50
2022-10-09T10:47:22.591Z,2.90
2022-10-09T10:48:22.562Z,2.80
2022-10-09T10:49:22.548Z,2.90
2022-10-09T10:50:22.538Z,3.20
2022-10-09T10:51:22.529Z,2.80
2022-10-09T10:52:22.531Z,3.40
2022-10-09T10:53:22.508Z,2.90
2022-10-09T10:54:22.502Z,3.40
2022-10-09T10:55:22.491Z,3.00
2022-10-09T10:56:22.483Z,2.60
2022-10-09T10:57:22.489Z,2.90
2022-10-09T10:58:22.465Z,3.20
2022-10-09T10:59:22.531Z,2.40
2022-10-09T11:00:22.441Z,2.90
2022-10-09T11:01:22.535Z,2.70
2022-10-09T11:02:22.433Z,2.90
2022-10-09T11:03:22.481Z,2.90
2022-10-09T11:04:22.407Z,2.90
2022-10-09T11:05:22.397Z,3.10
2022-10-09T11:06:22.383Z,2.60
2022-10-09T11:07:22.382Z,3.00
2022-10-09T11:08:22.370Z,2.60
2022-10-09T11:09:22.351Z,2.80
2022-10-09T11:10:22.339Z,2.50
2022-10-09T11:11:22.340Z,3.10
2022-10-09T11:12:43.317Z,3.10
2022-10-09T11:13:24.309Z,3.00
2022-10-09T11:14:22.308Z,2.90
2022-10-09T11:15:22.296Z,2.90
2022-10-09T11:16:22.332Z,2.80
2022-10-09T11:17:22.282Z,3.00
2022-10-09T11:18:22.264Z,2.80
2022-10-09T11:19:22.247Z,2.90
2022-10-09T11:20:22.238Z,3.20
2022-10-09T11:21:22.245Z,3.10
2022-10-09T11:22:22.220Z,3.00
2022-10-09T11:23:22.206Z,3.40
2022-10-09T11:24:22.200Z,2.70
2022-10-09T11:25:22.189Z,3.00
2022-10-09T11:26:22.186Z,2.80
2022-10-09T11:27:22.165Z,2.80
2022-10-09T11:28:22.223Z,2.90
2022-10-09T11:29:22.145Z,2.90
2022-10-09T11:30:22.135Z,2.80
2022-10-09T11:31:22.289Z,2.80
2022-10-09T11:32:22.112Z,3.10
2022-10-09T11:33:22.115Z,2.70
2022-10-09T11:34:22.096Z,2.50
2022-10-09T11:35:22.087Z,2.80
2022-10-09T11:36:22.096Z,2.50
2022-10-09T11:37:22.062Z,2.40
2022-10-09T11:38:23.064Z,2.50
2022-10-09T11:39:22.049Z,2.50
2022-10-09T11:40:22.036Z,3.40
2022-10-09T11:41:22.030Z,3.10
2022-10-09T11:42:22.071Z,3.10
2022-10-09T11:43:22.004Z,2.90
2022-10-09T11:44:22.001Z,3.00
2022-10-09T11:45:21.985Z,3.10
2022-10-09T11:46:21.975Z,2.90
2022-10-09T11:47:21.977Z,3.10
2022-10-09T11:48:21.955Z,2.20
2022-10-09T11:49:21.948Z,3.10
2022-10-09T11:50:21.937Z,2.70
2022-10-09T11:51:21.934Z,2.50
2022-10-09T11:52:21.931Z,2.40
2022-10-09T11:53:21.904Z,3.00
2022-10-09T11:54:21.893Z,2.60
2022-10-09T11:55:21.882Z,2.50
2022-10-09T11:56:21.881Z,2.50
2022-10-09T11:57:21.874Z,2.30
2022-10-09T11:58:21.851Z,2.50
2022-10-09T11:59:21.846Z,2.20
2022-10-09T12:00:21.842Z,2.50
2022-10-09T12:01:21.923Z,2.70
2022-10-09T12:02:21.872Z,2.40
2022-10-09T12:03:21.805Z,2.30
2022-10-09T12:04:37.424Z,2.30
2022-10-09T12:05:23.780Z,2.90
2022-10-09T12:06:21.770Z,2.50
2022-10-09T12:07:21.771Z,2.50
2022-10-09T12:08:21.748Z,2.50
2022-10-09T12:09:21.743Z,2.30
2022-10-09T12:10:21.727Z,2.60
2022-10-09T12:11:21.716Z,2.60
2022-10-09T12:12:21.888Z,2.40
2022-10-09T12:13:21.700Z,2.60
2022-10-09T12:14:21.691Z,2.60
2022-10-09T12:15:21.687Z,2.50
2022-10-09T12:16:21.710Z,2.60
2022-10-09T12:17:21.671Z,2.20
2022-10-09T12:18:21.650Z,2.40
2022-10-09T12:19:21.646Z,2.30
2022-10-09T12:20:21.644Z,2.20
2022-10-09T12:21:21.623Z,2.40
2022-10-09T12:22:21.626Z,2.30
2022-10-09T12:23:26.837Z,2.10
2022-10-09T12:24:23.602Z,2.80
2022-10-09T12:25:21.572Z,2.20
2022-10-09T12:26:22.594Z,2.40
2022-10-09T12:27:21.573Z,2.40
2022-10-09T12:28:21.671Z,2.30
2022-10-09T12:29:21.550Z,2.70
2022-10-09T12:30:21.539Z,2.40
2022-10-09T12:31:21.578Z,2.40
2022-10-09T12:32:21.516Z,2.20
2022-10-09T12:33:21.504Z,2.30
2022-10-09T12:34:21.497Z,2.70
2022-10-09T12:35:21.491Z,2.10
2022-10-09T12:36:21.486Z,2.00
2022-10-09T12:37:21.463Z,2.10
2022-10-09T12:38:21.454Z,2.00
2022-10-09T12:39:21.442Z,1.80
2022-10-09T12:40:21.437Z,2.10
2022-10-09T12:41:21.434Z,1.90
2022-10-09T12:42:21.486Z,2.20
2022-10-09T12:43:21.406Z,1.80
2022-10-09T12:44:21.394Z,2.00
2022-10-09T12:45:21.380Z,2.00
2022-10-09T12:46:21.413Z,2.10
2022-10-09T12:47:21.360Z,2.20
2022-10-09T12:48:21.347Z,1.80
2022-10-09T12:49:21.342Z,1.80
2022-10-09T12:50:21.330Z,2.00
2022-10-09T12:51:21.330Z,2.10
2022-10-09T12:52:21.312Z,2.00
2022-10-09T12:53:21.300Z,2.10
2022-10-09T12:54:21.284Z,1.90
2022-10-09T12:55:21.353Z,2.00
2022-10-09T12:56:21.295Z,1.90
2022-10-09T12:57:25.385Z,1.80
2022-10-09T12:58:23.243Z,2.10
2022-10-09T12:59:21.236Z,1.90
2022-10-09T13:00:21.220Z,1.90
2022-10-09T13:01:22.397Z,2.00
2022-10-09T13:02:21.372Z,2.10
2022-10-09T13:03:21.189Z,2.00
2022-10-09T13:04:21.187Z,1.80
2022-10-09T13:05:21.176Z,2.20
2022-10-09T13:06:21.182Z,2.10
2022-10-09T13:07:21.157Z,2.90
2022-10-09T13:08:21.157Z,3.90
2022-10-09T13:09:21.138Z,2.00
2022-10-09T13:10:21.131Z,2.00
2022-10-09T13:11:21.135Z,2.70
2022-10-09T13:12:21.108Z,68.40
2022-10-09T13:13:21.101Z,9.50